createdAt,value
2022-10-30T00:00:33.477Z,80.59
2022-10-30T00:03:36.392Z,80.92
2022-10-30T00:06:40.814Z,80.74
2022-10-30T00:09:43.392Z,80.96
2022-10-30T00:12:46.167Z,80.75
2022-10-30T00:15:50.900Z,80.87
2022-10-30T00:18:53.941Z,81.55
2022-10-30T00:24:59.902Z,80.64
2022-10-30T00:28:02.583Z,81.13
2022-10-30T00:31:06.330Z,80.78
2022-10-30T00:34:09.492Z,80.54
2022-10-30T00:37:13.602Z,80.56
2022-10-30T00:40:17.848Z,80.91
2022-10-30T00:43:32.521Z,81.17
2022-10-30T00:46:40.319Z,80.67
2022-10-30T00:49:51.311Z,80.79
2022-10-30T00:53:00.956Z,80.97
2022-10-30T00:56:08.219Z,81.01
2022-10-30T00:59:13.845Z,81.23
2022-10-30T01:02:17.649Z,81.79
2022-10-30T01:05:24.270Z,82.21
2022-10-30T01:08:28.880Z,82.10
2022-10-30T01:11:31.500Z,82.42
2022-10-30T01:14:37.505Z,83.26
2022-10-30T01:18:30.458Z,83.58
2022-10-30T01:21:44.549Z,83.68
2022-10-30T01:25:01.529Z,83.47
2022-10-30T01:28:15.087Z,83.50
2022-10-30T01:31:29.511Z,83.16
2022-10-30T01:37:51.716Z,83.56
2022-10-30T01:40:55.893Z,83.50
2022-10-30T01:44:02.841Z,83.09
2022-10-30T01:47:22.127Z,83.54
2022-10-30T01:50:34.101Z,83.29
2022-10-30T01:53:47.234Z,83.49
2022-10-30T01:57:01.092Z,82.74
2022-10-30T02:00:07.594Z,82.90
2022-10-30T02:03:10.855Z,82.12
2022-10-30T02:06:13.824Z,82.09
2022-10-30T02:09:17.309Z,82.30
2022-10-30T02:12:22.172Z,82.56
2022-10-30T02:15:25.300Z,82.38
2022-10-30T02:18:30.205Z,82.16
2022-10-30T02:21:34.525Z,82.08
2022-10-30T02:24:37.218Z,82.04
2022-10-30T02:27:40.034Z,81.45
2022-10-30T02:30:44.254Z,81.29
2022-10-30T02:33:47.351Z,81.98
2022-10-30T02:36:51.365Z,81.50
2022-10-30T02:39:54.226Z,81.41
2022-10-30T02:42:56.943Z,81.14
2022-10-30T02:45:59.652Z,81.32
2022-10-30T02:49:03.985Z,81.42
2022-10-30T02:52:12.330Z,82.36
2022-10-30T02:55:15.121Z,81.36
2022-10-30T02:58:18.408Z,81.22
2022-10-30T03:01:21.685Z,80.99
2022-10-30T03:04:24.417Z,80.86
2022-10-30T03:07:28.585Z,80.28
2022-10-30T03:10:31.238Z,80.90
2022-10-30T03:13:35.372Z,80.90
2022-10-30T03:16:38.959Z,80.64
2022-10-30T03:19:41.811Z,80.92
2022-10-30T03:22:45.858Z,81.09
2022-10-30T03:25:48.601Z,81.22
2022-10-30T03:28:51.479Z,80.92
2022-10-30T03:31:54.883Z,80.82
2022-10-30T03:34:57.465Z,80.91
2022-10-30T03:38:01.557Z,81.16
2022-10-30T03:41:05.494Z,80.98
2022-10-30T03:44:08.205Z,81.65
2022-10-30T03:50:21.174Z,82.17
2022-10-30T03:53:26.490Z,82.47
2022-10-30T03:56:29.705Z,81.95
2022-10-30T03:59:32.378Z,81.60
2022-10-30T04:02:35.065Z,82.09
2022-10-30T04:05:38.294Z,82.41
2022-10-30T04:08:42.304Z,82.66
2022-10-30T04:11:45.152Z,82.60
2022-10-30T04:14:47.845Z,82.45
2022-10-30T04:17:51.463Z,82.15
2022-10-30T04:20:54.670Z,82.07
2022-10-30T04:23:58.693Z,81.76
2022-10-30T04:27:01.555Z,81.69
2022-10-30T04:30:04.857Z,82.26
2022-10-30T04:33:11.820Z,82.64
2022-10-30T04:36:14.697Z,82.93
2022-10-30T04:39:18.749Z,82.58
2022-10-30T04:42:21.358Z,83.10
2022-10-30T04:45:24.275Z,83.17
2022-10-30T04:48:27.375Z,83.18
2022-10-30T04:51:30.289Z,82.72
2022-10-30T04:54:34.401Z,83.38
2022-10-30T04:57:37.274Z,82.94
2022-10-30T05:00:43.783Z,82.71
2022-10-30T05:03:48.129Z,83.17
2022-10-30T05:06:53.327Z,82.63
2022-10-30T05:09:57.371Z,82.62
2022-10-30T05:13:00.268Z,82.62
2022-10-30T05:16:02.975Z,83.31
2022-10-30T05:19:05.586Z,83.33
2022-10-30T05:22:09.407Z,83.41
2022-10-30T05:25:13.569Z,83.89
2022-10-30T05:28:16.126Z,84.02
2022-10-30T05:31:18.799Z,84.09
2022-10-30T05:34:21.329Z,83.84
2022-10-30T05:37:24.142Z,84.11
2022-10-30T05:40:28.687Z,84.33
2022-10-30T05:43:31.220Z,83.92
2022-10-30T05:46:33.975Z,84.23
2022-10-30T05:49:36.535Z,84.19
2022-10-30T05:52:39.248Z,83.95
2022-10-30T05:55:43.345Z,83.82
2022-10-30T05:58:46.101Z,84.14
2022-10-30T06:01:48.816Z,83.69
2022-10-30T06:04:51.416Z,83.05
2022-10-30T06:07:56.083Z,83.49
2022-10-30T06:11:00.244Z,83.69
2022-10-30T06:14:03.566Z,83.42
2022-10-30T06:17:06.439Z,83.88
2022-10-30T06:20:09.870Z,84.05
2022-10-30T06:23:12.544Z,84.08
2022-10-30T06:26:16.443Z,83.75
2022-10-30T06:29:19.256Z,83.73
2022-10-30T06:32:21.993Z,83.51
2022-10-30T06:35:24.662Z,83.91
2022-10-30T06:38:27.351Z,84.04
2022-10-30T06:41:31.261Z,83.92
2022-10-30T06:44:33.903Z,83.99
2022-10-30T06:47:36.816Z,83.56
2022-10-30T06:50:39.750Z,83.51
2022-10-30T06:53:42.443Z,83.21
2022-10-30T06:56:50.964Z,83.18
2022-10-30T06:59:53.787Z,82.77
2022-10-30T07:02:58.457Z,82.94
2022-10-30T07:06:02.033Z,83.05
2022-10-30T07:09:04.742Z,82.85
2022-10-30T07:12:09.869Z,82.79
2022-10-30T07:15:12.435Z,83.19
2022-10-30T07:18:15.105Z,82.78
2022-10-30T07:21:17.810Z,82.61
2022-10-30T07:24:20.575Z,82.53
2022-10-30T07:27:24.718Z,82.16
2022-10-30T07:30:28.562Z,81.66
2022-10-30T07:33:31.298Z,81.64
2022-10-30T07:36:34.070Z,81.68
2022-10-30T07:39:36.795Z,81.11
2022-10-30T07:42:41.650Z,81.41
2022-10-30T07:45:46.020Z,80.93
2022-10-30T07:48:48.754Z,80.87
2022-10-30T07:51:51.316Z,80.13
2022-10-30T07:54:57.344Z,79.97
2022-10-30T07:58:01.587Z,78.90
2022-10-30T08:01:04.694Z,79.19
2022-10-30T08:04:07.524Z,78.54
2022-10-30T08:07:10.301Z,78.75
2022-10-30T08:10:13.157Z,78.08
2022-10-30T08:13:18.690Z,78.64
2022-10-30T08:16:21.734Z,77.37
2022-10-30T08:19:24.526Z,78.04
2022-10-30T08:22:27.253Z,78.26
2022-10-30T08:25:31.829Z,76.81
2022-10-30T08:28:35.843Z,76.17
2022-10-30T08:31:38.505Z,75.62
2022-10-30T08:34:41.123Z,74.88
2022-10-30T08:37:43.871Z,74.08
2022-10-30T08:40:46.656Z,74.20
2022-10-30T08:43:50.678Z,75.24
2022-10-30T08:46:53.654Z,74.26
2022-10-30T08:49:56.216Z,74.43
2022-10-30T08:53:02.354Z,72.70
2022-10-30T08:56:05.900Z,73.16
2022-10-30T08:59:09.986Z,71.51
2022-10-30T09:02:12.727Z,69.15
2022-10-30T09:05:15.524Z,69.19
2022-10-30T09:08:18.187Z,68.04
2022-10-30T09:11:20.870Z,67.02
2022-10-30T09:14:25.050Z,68.43
2022-10-30T09:17:27.982Z,65.73
2022-10-30T09:20:31.689Z,67.82
2022-10-30T09:23:34.585Z,68.33
2022-10-30T09:26:37.148Z,68.03
2022-10-30T09:29:41.227Z,66.02
2022-10-30T09:32:43.800Z,65.26
2022-10-30T09:35:48.288Z,63.36
2022-10-30T09:38:51.057Z,62.77
2022-10-30T09:42:10.328Z,59.68
2022-10-30T09:45:47.851Z,61.03
2022-10-30T09:49:06.981Z,58.54
2022-10-30T09:52:17.764Z,54.97
2022-10-30T09:55:31.164Z,56.00
2022-10-30T09:58:44.789Z,53.17
2022-10-30T10:01:53.496Z,53.52
2022-10-30T10:05:01.210Z,53.37
2022-10-30T10:08:08.580Z,51.86
2022-10-30T10:11:15.897Z,51.74
2022-10-30T10:14:22.765Z,51.33
2022-10-30T10:17:32.439Z,50.86
2022-10-30T10:20:41.303Z,50.71
2022-10-30T10:23:49.570Z,51.98
2022-10-30T10:26:58.714Z,52.12
2022-10-30T10:30:06.533Z,50.29
2022-10-30T10:33:27.517Z,50.66
2022-10-30T10:36:40.531Z,49.22
2022-10-30T10:39:57.164Z,49.20
2022-10-30T10:43:12.596Z,48.68
2022-10-30T10:46:32.392Z,49.45
2022-10-30T10:49:47.501Z,47.94
2022-10-30T10:52:55.418Z,48.02
2022-10-30T10:56:01.038Z,48.71
2022-10-30T10:59:09.613Z,48.04
2022-10-30T11:02:31.588Z,47.21
2022-10-30T11:05:40.448Z,46.45
2022-10-30T11:08:46.400Z,48.00
2022-10-30T11:11:49.715Z,46.37
2022-10-30T11:14:52.984Z,45.59
2022-10-30T11:18:02.271Z,44.59
2022-10-30T11:21:13.707Z,46.11
2022-10-30T11:24:31.303Z,45.18
2022-10-30T11:27:37.947Z,45.59
2022-10-30T11:30:43.553Z,45.77
2022-10-30T11:33:49.537Z,46.00
2022-10-30T11:36:54.719Z,45.20
2022-10-30T11:40:03.784Z,45.80
2022-10-30T11:43:06.981Z,46.16
2022-10-30T11:46:12.823Z,45.14
2022-10-30T11:49:27.801Z,44.26
2022-10-30T11:52:38.805Z,44.14
2022-10-30T11:55:47.258Z,44.46
2022-10-30T11:58:53.078Z,44.37
2022-10-30T12:02:00.909Z,45.45
2022-10-30T12:05:04.477Z,46.02
2022-10-30T12:08:23.787Z,46.52
2022-10-30T12:11:30.973Z,47.40
2022-10-30T12:14:34.400Z,47.16
2022-10-30T12:17:40.255Z,46.63
2022-10-30T12:20:47.404Z,47.37
2022-10-30T12:23:56.594Z,47.72
2022-10-30T12:27:03.631Z,48.17
2022-10-30T12:30:16.115Z,47.81
2022-10-30T12:33:25.279Z,48.57
2022-10-30T12:36:33.532Z,48.66
2022-10-30T12:39:51.814Z,48.92
2022-10-30T12:43:03.086Z,47.37
2022-10-30T12:46:17.252Z,47.22
2022-10-30T12:49:26.630Z,48.72
2022-10-30T12:52:35.139Z,48.87
2022-10-30T12:55:42.541Z,48.60
2022-10-30T12:58:49.123Z,49.71
2022-10-30T13:01:59.267Z,49.26
2022-10-30T13:05:06.608Z,49.73
2022-10-30T13:08:18.813Z,49.53
2022-10-30T13:11:30.525Z,49.78
2022-10-30T13:14:40.157Z,50.47
2022-10-30T13:17:42.706Z,50.57
2022-10-30T13:21:02.692Z,50.43
2022-10-30T13:24:11.955Z,50.71
2022-10-30T13:27:22.302Z,51.11
2022-10-30T13:30:30.650Z,51.24
2022-10-30T13:33:41.168Z,51.01
2022-10-30T13:36:50.891Z,51.53
2022-10-30T13:40:05.752Z,51.41
2022-10-30T13:43:21.890Z,51.28
2022-10-30T13:46:39.828Z,52.21
2022-10-30T13:50:00.198Z,51.69
2022-10-30T13:53:05.729Z,52.78
2022-10-30T13:56:14.313Z,52.59
2022-10-30T13:59:32.573Z,52.73
2022-10-30T14:02:57.338Z,51.78
2022-10-30T14:06:10.474Z,52.63
2022-10-30T14:09:22.197Z,52.61
2022-10-30T14:12:46.433Z,53.45
2022-10-30T14:15:54.880Z,53.17
2022-10-30T14:19:02.380Z,53.51
2022-10-30T14:22:05.014Z,53.47
2022-10-30T14:25:14.922Z,53.80
2022-10-30T14:28:21.196Z,54.31
2022-10-30T14:31:36.983Z,54.28
2022-10-30T14:34:43.948Z,54.68
2022-10-30T14:37:57.960Z,54.77
2022-10-30T14:41:14.387Z,55.21
2022-10-30T14:44:36.987Z,55.28
2022-10-30T14:48:08.521Z,55.96
2022-10-30T14:51:17.684Z,56.95
2022-10-30T14:54:28.899Z,57.99
2022-10-30T14:57:52.295Z,58.89
2022-10-30T15:01:24.813Z,59.35
2022-10-30T15:04:41.320Z,60.40
2022-10-30T15:07:52.015Z,60.94
2022-10-30T15:11:17.836Z,61.55
2022-10-30T15:14:40.467Z,61.88
2022-10-30T15:17:53.795Z,62.47
2022-10-30T15:21:05.050Z,62.84
2022-10-30T15:24:15.342Z,63.28
2022-10-30T15:27:20.533Z,63.48
2022-10-30T15:30:24.698Z,63.65
2022-10-30T15:33:27.267Z,63.71
2022-10-30T15:36:41.664Z,64.05
2022-10-30T15:39:44.231Z,63.99
2022-10-30T15:42:50.158Z,64.27
2022-10-30T15:45:54.948Z,64.76
2022-10-30T15:48:57.678Z,65.29
2022-10-30T15:52:04.196Z,65.56
2022-10-30T15:55:10.531Z,65.58
2022-10-30T15:58:17.430Z,66.12
2022-10-30T16:01:27.393Z,65.90
2022-10-30T16:04:34.578Z,66.45
2022-10-30T16:07:47.071Z,66.75
2022-10-30T16:10:50.584Z,66.86
2022-10-30T16:13:53.582Z,67.17
2022-10-30T16:17:00.299Z,67.23
2022-10-30T16:20:05.437Z,67.03
2022-10-30T16:23:09.879Z,67.20
2022-10-30T16:26:26.013Z,67.78
2022-10-30T16:29:29.513Z,67.87
2022-10-30T16:32:32.970Z,67.79
2022-10-30T16:35:35.603Z,68.28
2022-10-30T16:38:40.304Z,68.33
2022-10-30T16:41:43.889Z,68.28
2022-10-30T16:44:47.440Z,68.40
2022-10-30T16:47:53.993Z,68.40
2022-10-30T16:51:01.942Z,68.71
2022-10-30T16:54:06.183Z,68.69
2022-10-30T16:57:15.969Z,69.00
2022-10-30T17:00:25.800Z,69.16
2022-10-30T17:03:34.968Z,68.95
2022-10-30T17:06:41.115Z,69.62
2022-10-30T17:09:46.922Z,70.31
2022-10-30T17:12:49.507Z,69.75
2022-10-30T17:15:52.217Z,69.99
2022-10-30T17:18:56.951Z,70.07
2022-10-30T17:22:01.734Z,70.13
2022-10-30T17:25:17.123Z,70.50
2022-10-30T17:28:27.598Z,70.79
2022-10-30T17:31:42.576Z,71.33
2022-10-30T17:34:45.273Z,70.96
2022-10-30T17:37:47.894Z,70.97
2022-10-30T17:40:52.021Z,71.53
2022-10-30T17:43:57.358Z,71.54
2022-10-30T17:47:01.381Z,71.59
2022-10-30T17:50:05.509Z,71.42
2022-10-30T17:53:13.869Z,71.86
2022-10-30T17:56:20.368Z,71.83
2022-10-30T17:59:23.048Z,71.98
2022-10-30T18:02:25.926Z,72.54
2022-10-30T18:05:31.631Z,72.32
2022-10-30T18:08:34.376Z,72.04
2022-10-30T18:11:38.788Z,72.76
2022-10-30T18:14:43.250Z,72.98
2022-10-30T18:17:45.864Z,72.60
2022-10-30T18:20:48.536Z,72.42
2022-10-30T18:23:52.767Z,72.57
2022-10-30T18:26:58.819Z,72.35
2022-10-30T18:30:01.457Z,72.41
2022-10-30T18:33:04.473Z,72.67
2022-10-30T18:36:12.099Z,72.72
2022-10-30T18:39:14.927Z,73.11
2022-10-30T18:42:19.001Z,72.65
2022-10-30T18:45:24.202Z,73.01
2022-10-30T18:48:26.775Z,73.06
2022-10-30T18:51:30.367Z,73.58
2022-10-30T18:54:32.914Z,73.29
2022-10-30T18:57:37.001Z,73.67
2022-10-30T19:01:10.099Z,73.74
2022-10-30T19:04:04.600Z,74.47
2022-10-30T19:07:07.300Z,74.24
2022-10-30T19:10:10.597Z,73.90
2022-10-30T19:13:17.010Z,73.62
2022-10-30T19:16:20.987Z,73.71
2022-10-30T19:19:23.566Z,73.84
2022-10-30T19:22:26.389Z,74.40
2022-10-30T19:25:32.310Z,74.32
2022-10-30T19:28:38.365Z,74.10
2022-10-30T19:31:40.920Z,74.18
2022-10-30T19:34:45.931Z,74.63
2022-10-30T19:37:48.549Z,74.41
2022-10-30T19:40:51.807Z,74.36
2022-10-30T19:43:55.955Z,74.33
2022-10-30T19:46:58.649Z,73.81
2022-10-30T19:50:01.187Z,74.36
2022-10-30T19:53:05.033Z,73.95
2022-10-30T19:56:10.504Z,74.19
2022-10-30T19:59:16.235Z,74.76
2022-10-30T20:02:18.922Z,74.41
2022-10-30T20:05:24.288Z,75.12
2022-10-30T20:08:28.010Z,75.54
2022-10-30T20:11:31.995Z,75.00
2022-10-30T20:14:35.929Z,75.25
2022-10-30T20:17:38.629Z,74.64
2022-10-30T20:20:46.242Z,74.91
2022-10-30T20:23:48.873Z,74.65
2022-10-30T20:26:51.681Z,75.15
2022-10-30T20:29:55.645Z,75.02
2022-10-30T20:32:58.661Z,75.03
2022-10-30T20:36:01.810Z,74.74
2022-10-30T20:39:05.375Z,74.72
2022-10-30T20:42:10.048Z,75.17
2022-10-30T20:45:19.709Z,75.54
2022-10-30T20:48:22.233Z,75.30
2022-10-30T20:51:24.954Z,75.22
2022-10-30T20:54:27.549Z,75.03
2022-10-30T20:57:30.262Z,75.04
2022-10-30T21:00:34.308Z,75.25
2022-10-30T21:03:37.059Z,75.15
2022-10-30T21:06:39.644Z,75.05
2022-10-30T21:09:42.259Z,74.85
2022-10-30T21:12:44.887Z,75.17
2022-10-30T21:15:51.463Z,75.74
2022-10-30T21:18:54.634Z,75.10
2022-10-30T21:21:57.302Z,75.45
2022-10-30T21:25:00.075Z,75.41
2022-10-30T21:28:03.241Z,75.55
2022-10-30T21:31:09.523Z,75.25
2022-10-30T21:34:13.606Z,75.64
2022-10-30T21:37:16.321Z,76.22
2022-10-30T21:40:20.078Z,76.13
2022-10-30T21:43:22.700Z,76.27
2022-10-30T21:46:28.902Z,76.32
2022-10-30T21:49:31.598Z,76.43
2022-10-30T21:52:34.868Z,75.82
2022-10-30T21:55:38.536Z,76.24
2022-10-30T21:58:41.314Z,75.90
2022-10-30T22:01:46.449Z,75.59
2022-10-30T22:04:49.324Z,75.32
2022-10-30T22:07:52.615Z,75.47
2022-10-30T22:10:55.289Z,75.97
2022-10-30T22:14:00.469Z,75.36
2022-10-30T22:17:04.512Z,75.95
2022-10-30T22:20:08.426Z,76.17
2022-10-30T22:23:11.231Z,76.31
2022-10-30T22:26:17.631Z,76.43
2022-10-30T22:29:20.349Z,75.89
2022-10-30T22:32:24.364Z,76.06
2022-10-30T22:35:27.095Z,75.80
2022-10-30T22:38:29.690Z,76.03
2022-10-30T22:41:37.666Z,76.27
2022-10-30T22:44:40.967Z,75.89
2022-10-30T22:47:45.009Z,75.96
2022-10-30T22:50:47.530Z,75.67
2022-10-30T22:53:57.020Z,75.67
2022-10-30T22:56:59.599Z,76.45
2022-10-30T23:00:02.343Z,76.93
2022-10-30T23:03:06.381Z,76.65
2022-10-30T23:06:09.668Z,76.53
2022-10-30T23:09:17.241Z,76.03
2022-10-30T23:12:20.091Z,76.95
2022-10-30T23:15:22.655Z,76.41
2022-10-30T23:18:26.966Z,76.34
2022-10-30T23:21:31.664Z,75.80
2022-10-30T23:24:34.840Z,76.71
2022-10-30T23:27:37.398Z,77.10
2022-10-30T23:30:42.927Z,76.95
2022-10-30T23:33:49.219Z,76.63
2022-10-30T23:36:52.889Z,76.51
2022-10-30T23:39:56.801Z,76.44
2022-10-30T23:43:00.284Z,76.16
2022-10-30T23:46:03.752Z,75.63
2022-10-30T23:49:08.790Z,75.89
2022-10-30T23:52:11.501Z,76.35
2022-10-30T23:55:14.226Z,77.01
